createdAt,value
2019-01-19T00:00:27.872Z,28.60
2019-01-19T00:02:56.694Z,17.87
2019-01-19T00:05:28.619Z,21.30
2019-01-19T00:07:57.427Z,32.83
2019-01-19T00:10:26.252Z,20.93
2019-01-19T00:12:57.995Z,25.87
2019-01-19T00:15:26.801Z,23.70
2019-01-19T00:17:58.778Z,16.50
2019-01-19T00:20:36.506Z,30.30
2019-01-19T00:23:08.196Z,34.33
2019-01-19T00:25:37.020Z,22.20
2019-01-19T00:28:08.902Z,30.73
2019-01-19T00:30:37.724Z,37.13
2019-01-19T00:33:18.313Z,29.27
2019-01-19T00:35:50.030Z,31.93
2019-01-19T00:38:33.816Z,32.07
2019-01-19T00:41:11.989Z,29.27
2019-01-19T00:43:40.243Z,27.67
2019-01-19T00:46:18.014Z,22.60
2019-01-19T00:48:46.859Z,30.90
2019-01-19T00:51:18.507Z,31.30
2019-01-19T00:54:03.758Z,36.33
2019-01-19T00:56:48.918Z,45.67
2019-01-19T00:59:17.727Z,20.17
2019-01-19T01:01:49.467Z,29.77
2019-01-19T01:04:18.278Z,24.23
2019-01-19T01:06:49.755Z,30.30
2019-01-19T01:09:24.239Z,25.97
2019-01-19T01:11:53.050Z,26.97
2019-01-19T01:14:38.355Z,41.77
2019-01-19T01:17:07.151Z,38.50
2019-01-19T01:19:38.649Z,36.37
2019-01-19T01:22:10.110Z,36.53
2019-01-19T01:24:40.582Z,34.80
2019-01-19T01:27:17.267Z,43.53
2019-01-19T01:29:55.206Z,38.50
2019-01-19T01:32:40.582Z,33.00
2019-01-19T01:35:32.450Z,43.10
2019-01-19T01:37:56.418Z,30.83
2019-01-19T01:40:34.083Z,38.83
2019-01-19T01:43:02.904Z,40.37
2019-01-19T01:45:34.347Z,38.87
2019-01-19T01:48:03.138Z,50.90
2019-01-19T01:50:34.599Z,42.67
2019-01-19T01:53:03.386Z,36.27
2019-01-19T01:55:32.202Z,34.40
2019-01-19T01:58:03.953Z,35.43
2019-01-19T02:00:35.790Z,33.93
2019-01-19T02:03:07.530Z,21.63
2019-01-19T02:05:40.373Z,24.10
2019-01-19T02:08:12.426Z,42.50
2019-01-19T02:10:53.406Z,22.97
2019-01-19T02:13:34.315Z,24.30
2019-01-19T02:16:12.026Z,27.73
2019-01-19T02:18:43.749Z,27.93
2019-01-19T02:21:24.499Z,31.33
2019-01-19T02:24:05.206Z,26.57
2019-01-19T02:26:37.205Z,33.07
2019-01-19T02:29:08.924Z,21.93
2019-01-19T02:31:46.697Z,28.27
2019-01-19T02:34:32.174Z,22.67
2019-01-19T02:37:01.094Z,30.37
2019-01-19T02:39:39.058Z,27.17
2019-01-19T02:42:19.731Z,36.30
2019-01-19T02:44:51.606Z,36.27
2019-01-19T02:47:23.086Z,31.17
2019-01-19T02:49:53.515Z,36.70
2019-01-19T02:52:22.302Z,24.57
2019-01-19T02:55:00.300Z,33.20
2019-01-19T02:57:38.008Z,32.90
2019-01-19T03:00:15.708Z,34.60
2019-01-19T03:02:47.589Z,32.00
2019-01-19T03:05:16.496Z,35.03
2019-01-19T03:07:54.290Z,36.37
2019-01-19T03:10:35.114Z,40.57
2019-01-19T03:13:12.777Z,38.07
2019-01-19T03:15:58.179Z,47.00
2019-01-19T03:18:35.979Z,41.50
2019-01-19T03:21:07.457Z,27.97
2019-01-19T03:23:45.136Z,34.97
2019-01-19T03:26:16.888Z,36.67
2019-01-19T03:28:45.703Z,42.00
2019-01-19T03:31:29.755Z,44.17
2019-01-19T03:33:58.557Z,30.53
2019-01-19T03:36:44.355Z,35.97
2019-01-19T03:39:13.331Z,32.80
2019-01-19T03:41:46.471Z,37.07
2019-01-19T03:44:18.206Z,39.20
2019-01-19T03:46:55.923Z,42.67
2019-01-19T03:49:24.716Z,37.73
2019-01-19T03:52:05.485Z,35.43
2019-01-19T03:54:49.259Z,38.67
2019-01-19T03:57:18.064Z,41.67
2019-01-19T03:59:55.751Z,38.23
2019-01-19T04:02:42.650Z,45.63
2019-01-19T04:05:14.404Z,43.00
2019-01-19T04:07:49.160Z,44.63
2019-01-19T04:10:23.723Z,33.80
2019-01-19T04:13:01.238Z,41.87
2019-01-19T04:15:32.947Z,42.37
2019-01-19T04:18:20.116Z,39.97
2019-01-19T04:20:51.626Z,37.60
2019-01-19T04:23:18.923Z,38.00
2019-01-19T04:25:47.726Z,39.83
2019-01-19T04:28:16.658Z,41.67
2019-01-19T04:30:44.085Z,40.63
2019-01-19T04:33:11.348Z,41.53
2019-01-19T04:35:38.635Z,39.20
2019-01-19T04:38:05.959Z,28.40
2019-01-19T04:40:33.231Z,29.40
2019-01-19T04:43:00.546Z,24.00
2019-01-19T04:45:27.814Z,34.77
2019-01-19T04:47:55.090Z,32.03
2019-01-19T04:50:22.336Z,22.53
2019-01-19T04:52:49.623Z,27.90
2019-01-19T04:55:16.907Z,23.40
2019-01-19T04:57:44.196Z,31.70
2019-01-19T05:00:12.990Z,33.00
2019-01-19T05:02:40.292Z,31.13
2019-01-19T05:05:07.562Z,35.97
2019-01-19T05:07:34.807Z,33.57
2019-01-19T05:10:02.081Z,34.70
2019-01-19T05:12:29.332Z,35.30
2019-01-19T05:14:56.601Z,30.33
2019-01-19T05:17:23.883Z,36.13
2019-01-19T05:19:51.158Z,37.20
2019-01-19T05:22:18.458Z,28.90
2019-01-19T05:24:45.708Z,31.20
2019-01-19T05:27:12.993Z,28.17
2019-01-19T05:29:40.254Z,27.63
2019-01-19T05:32:07.529Z,36.03
2019-01-19T05:34:34.798Z,33.33
2019-01-19T05:37:02.062Z,29.97
2019-01-19T05:39:29.347Z,35.73
2019-01-19T05:41:56.637Z,35.47
2019-01-19T05:44:24.318Z,32.00
2019-01-19T05:46:51.613Z,36.73
2019-01-19T05:49:18.900Z,33.07
2019-01-19T05:51:46.156Z,33.70
2019-01-19T05:54:13.399Z,38.27
2019-01-19T05:56:40.667Z,35.30
2019-01-19T05:59:07.937Z,34.37
2019-01-19T06:01:35.234Z,33.90
2019-01-19T06:04:02.518Z,33.13
2019-01-19T06:06:29.809Z,32.80
2019-01-19T06:08:57.156Z,29.47
2019-01-19T06:11:24.407Z,33.33
2019-01-19T06:13:51.697Z,33.40
2019-01-19T06:16:18.939Z,36.97
2019-01-19T06:18:47.871Z,37.60
2019-01-19T06:21:16.785Z,32.47
2019-01-19T06:23:44.066Z,31.33
2019-01-19T06:26:11.429Z,35.77
2019-01-19T06:28:38.714Z,35.17
2019-01-19T06:31:07.126Z,37.30
2019-01-19T06:33:34.526Z,34.77
2019-01-19T06:36:01.776Z,37.67
2019-01-19T06:38:29.084Z,35.80
2019-01-19T06:40:56.337Z,35.70
2019-01-19T06:43:23.611Z,33.80
2019-01-19T06:45:50.866Z,36.57
2019-01-19T06:48:18.147Z,34.97
2019-01-19T06:50:45.407Z,35.07
2019-01-19T06:53:12.675Z,37.00
2019-01-19T06:55:39.943Z,36.93
2019-01-19T06:58:07.232Z,34.00
2019-01-19T07:00:34.525Z,34.07
2019-01-19T07:03:01.791Z,33.27
2019-01-19T07:05:29.056Z,33.03
2019-01-19T07:07:56.334Z,33.97
2019-01-19T07:10:25.174Z,34.57
2019-01-19T07:12:52.442Z,38.17
2019-01-19T07:15:19.796Z,37.13
2019-01-19T07:17:47.069Z,39.97
2019-01-19T07:20:18.542Z,42.30
2019-01-19T07:22:45.803Z,42.83
2019-01-19T07:25:14.589Z,43.57
2019-01-19T07:27:41.927Z,41.23
2019-01-19T07:30:10.743Z,42.10
2019-01-19T07:32:37.995Z,45.07
2019-01-19T07:35:05.323Z,44.00
2019-01-19T07:37:32.619Z,42.37
2019-01-19T07:39:59.886Z,38.50
2019-01-19T07:42:27.184Z,42.90
2019-01-19T07:44:54.461Z,40.60
2019-01-19T07:47:23.366Z,35.50
2019-01-19T07:49:50.654Z,40.10
2019-01-19T07:52:17.915Z,36.03
2019-01-19T07:54:45.204Z,36.30
2019-01-19T07:57:12.456Z,35.40
2019-01-19T07:59:39.800Z,37.03
2019-01-19T08:02:07.750Z,37.63
2019-01-19T08:04:35.023Z,35.77
2019-01-19T08:07:02.355Z,35.13
2019-01-19T08:09:31.159Z,35.00
2019-01-19T08:11:58.425Z,33.63
2019-01-19T08:14:25.709Z,34.43
2019-01-19T08:16:53.132Z,33.17
2019-01-19T08:19:20.375Z,35.47
2019-01-19T08:21:47.682Z,33.17
2019-01-19T08:24:15.043Z,32.60
2019-01-19T08:26:42.278Z,31.93
2019-01-19T08:29:09.574Z,31.60
2019-01-19T08:31:36.839Z,31.20
2019-01-19T08:34:04.199Z,27.60
2019-01-19T08:36:31.462Z,29.27
2019-01-19T08:38:58.738Z,30.17
2019-01-19T08:41:26.044Z,26.57
2019-01-19T08:43:53.304Z,27.70
2019-01-19T08:46:20.575Z,27.20
2019-01-19T08:48:47.852Z,26.47
2019-01-19T08:51:15.121Z,28.23
2019-01-19T08:53:42.391Z,26.60
2019-01-19T08:56:09.713Z,26.33
2019-01-19T08:58:37.055Z,25.60
2019-01-19T09:01:04.601Z,22.03
2019-01-19T09:03:31.943Z,22.10
2019-01-19T09:05:59.507Z,21.83
2019-01-19T09:08:26.898Z,20.77
2019-01-19T09:10:54.268Z,20.83
2019-01-19T09:13:21.695Z,19.80
2019-01-19T09:15:49.144Z,19.50
2019-01-19T09:18:16.585Z,18.80
2019-01-19T09:20:44.107Z,18.87
2019-01-19T09:23:13.189Z,16.57
2019-01-19T09:25:40.679Z,16.53
2019-01-19T09:28:08.354Z,16.13
2019-01-19T09:30:37.291Z,18.57
2019-01-19T09:33:04.734Z,16.37
2019-01-19T09:35:32.149Z,15.17
2019-01-19T09:37:59.443Z,15.03
2019-01-19T09:40:26.727Z,16.10
2019-01-19T09:42:53.979Z,15.43
2019-01-19T09:45:21.258Z,16.43
2019-01-19T09:47:48.510Z,14.63
2019-01-19T09:50:17.353Z,16.57
2019-01-19T09:52:44.828Z,16.30
2019-01-19T09:55:13.690Z,14.87
2019-01-19T09:57:40.930Z,14.73
2019-01-19T10:00:09.735Z,15.40
2019-01-19T10:02:37.036Z,14.83
2019-01-19T10:05:05.931Z,13.47
2019-01-19T10:07:33.218Z,13.47
2019-01-19T10:10:00.496Z,12.43
2019-01-19T10:12:30.488Z,13.23
2019-01-19T10:14:57.804Z,13.10
2019-01-19T10:17:25.123Z,13.87
2019-01-19T10:19:53.328Z,13.53
2019-01-19T10:22:21.178Z,11.43
2019-01-19T10:24:48.438Z,14.00
2019-01-19T10:27:15.746Z,14.33
2019-01-19T10:29:44.658Z,13.57
2019-01-19T10:32:11.922Z,13.30
2019-01-19T10:34:39.183Z,14.07
2019-01-19T10:37:16.696Z,11.70
2019-01-19T10:39:44.011Z,12.80
2019-01-19T10:42:11.297Z,12.33
2019-01-19T10:44:38.579Z,13.57
2019-01-19T10:47:05.866Z,13.10
2019-01-19T10:49:33.204Z,14.50
2019-01-19T10:52:00.470Z,12.40
2019-01-19T10:54:27.823Z,11.77
2019-01-19T10:56:55.115Z,12.47
2019-01-19T10:59:22.393Z,12.10
2019-01-19T11:01:49.666Z,12.90
2019-01-19T11:04:16.948Z,12.57
2019-01-19T11:06:44.200Z,11.87
2019-01-19T11:09:11.511Z,10.83
2019-01-19T11:11:38.855Z,11.07
2019-01-19T11:14:06.153Z,11.77
2019-01-19T11:16:36.435Z,12.90
2019-01-19T11:19:04.402Z,12.27
2019-01-19T11:21:31.648Z,12.63
2019-01-19T11:23:58.982Z,11.23
2019-01-19T11:26:26.248Z,11.97
2019-01-19T11:28:53.496Z,11.33
2019-01-19T11:31:20.803Z,12.40
2019-01-19T11:33:48.050Z,10.47
2019-01-19T11:36:15.300Z,11.40
2019-01-19T11:38:42.576Z,11.57
2019-01-19T11:41:12.795Z,11.03
2019-01-19T11:43:40.145Z,11.40
2019-01-19T11:46:07.410Z,10.67
2019-01-19T11:48:34.714Z,10.47
2019-01-19T11:51:01.991Z,10.53
2019-01-19T11:53:29.274Z,10.40
2019-01-19T11:55:56.543Z,10.10
2019-01-19T11:58:23.803Z,11.83
2019-01-19T12:00:51.067Z,10.20
2019-01-19T12:03:18.322Z,10.00
2019-01-19T12:05:45.587Z,10.47
2019-01-19T12:08:19.438Z,11.03
2019-01-19T12:10:43.264Z,11.13
2019-01-19T12:13:10.535Z,9.97
2019-01-19T12:15:37.841Z,10.17
2019-01-19T12:18:06.920Z,9.93
2019-01-19T12:20:35.732Z,9.97
2019-01-19T12:23:03.159Z,10.37
2019-01-19T12:25:30.524Z,10.13
2019-01-19T12:27:57.818Z,10.87
2019-01-19T12:30:26.606Z,10.10
2019-01-19T12:32:53.923Z,10.03
2019-01-19T12:35:21.238Z,9.93
2019-01-19T12:37:48.569Z,10.43
2019-01-19T12:40:19.543Z,10.77
2019-01-19T12:42:48.391Z,10.10
2019-01-19T12:45:17.208Z,10.37
2019-01-19T12:47:44.467Z,10.00
2019-01-19T12:50:13.295Z,10.07
2019-01-19T12:52:40.567Z,10.73
2019-01-19T12:55:09.388Z,10.60
2019-01-19T12:57:36.672Z,9.43
2019-01-19T13:00:05.564Z,9.93
2019-01-19T13:02:32.845Z,9.07
2019-01-19T13:05:00.192Z,9.10
2019-01-19T13:07:29.097Z,10.00
2019-01-19T13:09:56.376Z,9.63
2019-01-19T13:12:25.165Z,10.47
2019-01-19T13:14:53.963Z,9.37
2019-01-19T13:17:37.967Z,9.53
2019-01-19T13:20:12.603Z,9.60
2019-01-19T13:22:47.090Z,11.30
2019-01-19T13:25:32.292Z,9.60
2019-01-19T13:28:13.252Z,9.63
2019-01-19T13:30:58.731Z,9.77
2019-01-19T13:33:39.684Z,10.13
2019-01-19T13:36:10.120Z,10.43
2019-01-19T13:38:57.293Z,10.37
2019-01-19T13:41:26.090Z,9.80
2019-01-19T13:44:00.652Z,9.10
2019-01-19T13:46:35.666Z,10.07
2019-01-19T13:49:22.131Z,9.73
2019-01-19T13:51:50.934Z,10.47
2019-01-19T13:54:19.727Z,8.53
2019-01-19T13:57:05.208Z,9.20
2019-01-19T13:59:42.778Z,8.47
2019-01-19T14:02:17.493Z,8.93
2019-01-19T14:04:52.011Z,10.27
2019-01-19T14:07:20.807Z,9.07
2019-01-19T14:09:58.466Z,9.70
2019-01-19T14:12:27.262Z,8.47
2019-01-19T14:15:02.082Z,10.43
2019-01-19T14:17:33.562Z,9.30
2019-01-19T14:20:02.370Z,9.40
2019-01-19T14:22:49.360Z,9.50
2019-01-19T14:25:30.344Z,10.10
2019-01-19T14:27:59.170Z,9.27
2019-01-19T14:30:28.049Z,9.40
2019-01-19T14:33:02.546Z,10.23
2019-01-19T14:35:31.323Z,10.40
2019-01-19T14:38:03.059Z,10.37
2019-01-19T14:40:31.862Z,10.73
2019-01-19T14:43:03.770Z,10.17
2019-01-19T14:45:32.591Z,10.83
2019-01-19T14:48:10.470Z,11.07
2019-01-19T14:50:39.290Z,11.20
2019-01-19T14:53:24.839Z,10.93
2019-01-19T14:55:53.662Z,12.13
2019-01-19T14:58:31.370Z,12.57
2019-01-19T15:01:00.248Z,12.40
2019-01-19T15:03:29.162Z,13.03
2019-01-19T15:06:06.981Z,11.77
2019-01-19T15:08:41.482Z,13.27
2019-01-19T15:11:10.291Z,12.97
2019-01-19T15:13:54.491Z,13.50
2019-01-19T15:16:29.348Z,12.60
2019-01-19T15:18:59.812Z,12.97
2019-01-19T15:21:28.616Z,13.70
2019-01-19T15:23:57.446Z,13.30
2019-01-19T15:26:29.170Z,12.93
2019-01-19T15:29:09.860Z,13.20
2019-01-19T15:31:47.582Z,15.47
2019-01-19T15:34:19.477Z,13.30
2019-01-19T15:36:54.236Z,14.10
2019-01-19T15:39:23.030Z,13.57
2019-01-19T15:41:51.852Z,12.57
2019-01-19T15:44:26.312Z,13.67
2019-01-19T15:46:55.126Z,13.47
2019-01-19T15:49:23.937Z,13.67
2019-01-19T15:51:58.695Z,13.40
2019-01-19T15:54:27.514Z,13.40
2019-01-19T15:56:59.205Z,13.07
2019-01-19T15:59:43.239Z,12.17
2019-01-19T16:02:31.978Z,12.90
2019-01-19T16:05:16.009Z,14.50
2019-01-19T16:07:56.886Z,12.83
2019-01-19T16:10:42.032Z,13.20
2019-01-19T16:13:26.067Z,13.33
2019-01-19T16:16:11.502Z,12.17
2019-01-19T16:18:49.202Z,13.00
2019-01-19T16:21:33.173Z,12.23
2019-01-19T16:24:13.951Z,13.50
2019-01-19T16:26:42.738Z,11.57
2019-01-19T16:29:11.526Z,13.37
2019-01-19T16:31:43.287Z,12.93
2019-01-19T16:34:26.967Z,13.47
2019-01-19T16:37:04.836Z,14.57
2019-01-19T16:39:39.303Z,13.83
2019-01-19T16:42:10.772Z,12.97
2019-01-19T16:44:39.586Z,13.37
2019-01-19T16:47:17.324Z,14.13
2019-01-19T16:49:55.104Z,11.37
2019-01-19T16:52:26.935Z,12.50
2019-01-19T16:54:58.713Z,13.30
2019-01-19T16:57:44.297Z,12.23
2019-01-19T17:00:28.259Z,12.13
2019-01-19T17:02:59.971Z,13.17
2019-01-19T17:05:36.258Z,12.60
2019-01-19T17:08:05.136Z,13.13
2019-01-19T17:10:33.953Z,12.90
2019-01-19T17:13:02.758Z,13.23
2019-01-19T17:15:34.471Z,11.87
2019-01-19T17:18:15.478Z,12.77
2019-01-19T17:20:47.171Z,12.70
2019-01-19T17:23:21.698Z,14.07
2019-01-19T17:25:53.403Z,14.97
2019-01-19T17:28:22.217Z,14.77
2019-01-19T17:30:51.029Z,14.50
2019-01-19T17:33:22.860Z,13.50
2019-01-19T17:35:57.800Z,13.17
2019-01-19T17:38:26.606Z,13.20
2019-01-19T17:41:12.176Z,12.87
2019-01-19T17:43:47.098Z,13.97
2019-01-19T17:46:15.902Z,12.53
2019-01-19T17:48:44.723Z,13.57
2019-01-19T17:51:25.415Z,13.13
2019-01-19T17:54:00.061Z,13.40
2019-01-19T17:56:28.875Z,12.60
2019-01-19T17:59:17.018Z,12.50
2019-01-19T18:02:02.668Z,14.07
2019-01-19T18:04:36.091Z,12.80
2019-01-19T18:07:07.570Z,13.97
2019-01-19T18:09:36.383Z,13.10
2019-01-19T18:12:07.999Z,12.23
2019-01-19T18:14:36.830Z,12.03
2019-01-19T18:17:17.422Z,13.93
2019-01-19T18:19:51.931Z,12.50
2019-01-19T18:22:37.189Z,13.00
2019-01-19T18:25:14.967Z,12.20
2019-01-19T18:27:43.752Z,13.30
2019-01-19T18:30:12.544Z,12.17
2019-01-19T18:32:58.186Z,14.43
2019-01-19T18:35:26.999Z,12.03
2019-01-19T18:38:12.223Z,13.17
2019-01-19T18:40:50.175Z,14.63
2019-01-19T18:43:24.915Z,12.73
2019-01-19T18:46:02.996Z,11.43
2019-01-19T18:48:31.860Z,12.27
2019-01-19T18:51:06.631Z,12.20
2019-01-19T18:53:35.451Z,12.80
2019-01-19T18:56:10.451Z,12.17
2019-01-19T18:58:41.934Z,12.13
2019-01-19T19:01:16.723Z,12.87
2019-01-19T19:03:54.529Z,13.60
2019-01-19T19:06:39.680Z,13.40
2019-01-19T19:09:26.970Z,13.33
2019-01-19T19:12:10.925Z,10.97
2019-01-19T19:14:42.395Z,12.87
2019-01-19T19:17:27.946Z,12.47
2019-01-19T19:19:59.836Z,11.97
2019-01-19T19:22:31.307Z,12.73
2019-01-19T19:25:00.142Z,12.20
2019-01-19T19:27:34.715Z,12.90
2019-01-19T19:30:03.499Z,12.07
2019-01-19T19:32:44.252Z,12.73
2019-01-19T19:35:28.246Z,11.67
2019-01-19T19:38:15.010Z,12.43
2019-01-19T19:40:43.901Z,12.50
2019-01-19T19:43:15.830Z,11.90
2019-01-19T19:45:44.615Z,10.97
2019-01-19T19:48:25.471Z,12.70
2019-01-19T19:51:10.912Z,12.57
2019-01-19T19:53:38.201Z,12.13
2019-01-19T19:56:04.915Z,11.53
2019-01-19T19:58:32.991Z,12.97
2019-01-19T20:01:00.243Z,12.17
2019-01-19T20:03:27.516Z,13.33
2019-01-19T20:05:56.348Z,14.13
2019-01-19T20:08:23.618Z,11.63
2019-01-19T20:10:50.887Z,13.20
2019-01-19T20:13:18.166Z,12.97
2019-01-19T20:15:45.455Z,12.50
2019-01-19T20:18:12.727Z,12.53
2019-01-19T20:20:39.995Z,12.20
2019-01-19T20:23:07.263Z,11.30
2019-01-19T20:25:34.578Z,13.03
2019-01-19T20:28:01.841Z,12.77
2019-01-19T20:30:29.156Z,11.83
2019-01-19T20:32:56.441Z,12.17
2019-01-19T20:35:23.712Z,12.17
2019-01-19T20:37:50.966Z,12.07
2019-01-19T20:40:24.273Z,12.70
2019-01-19T20:42:47.243Z,10.73
2019-01-19T20:45:14.598Z,11.43
2019-01-19T20:47:41.894Z,11.23
2019-01-19T20:50:10.719Z,11.20
2019-01-19T20:52:38.063Z,11.00
2019-01-19T20:55:06.867Z,12.37
2019-01-19T20:57:34.170Z,11.90
2019-01-19T21:00:01.490Z,12.73
2019-01-19T21:02:30.431Z,11.77
2019-01-19T21:04:57.722Z,11.00
2019-01-19T21:07:24.998Z,11.90
2019-01-19T21:09:52.246Z,11.53
2019-01-19T21:12:19.542Z,11.23
2019-01-19T21:14:46.845Z,12.13
2019-01-19T21:17:14.111Z,11.27
2019-01-19T21:19:41.363Z,10.97
2019-01-19T21:22:08.666Z,11.20
2019-01-19T21:24:35.947Z,11.67
2019-01-19T21:27:03.199Z,11.37
2019-01-19T21:29:30.559Z,11.50
2019-01-19T21:31:57.807Z,10.97
2019-01-19T21:34:25.083Z,11.20
2019-01-19T21:36:52.436Z,10.50
2019-01-19T21:39:19.695Z,11.47
2019-01-19T21:41:46.987Z,11.47
2019-01-19T21:44:14.261Z,11.67
2019-01-19T21:46:41.627Z,10.93
2019-01-19T21:49:08.880Z,10.83
2019-01-19T21:51:36.154Z,11.63
2019-01-19T21:54:03.598Z,11.20
2019-01-19T21:56:30.869Z,12.50
2019-01-19T21:58:58.139Z,12.27
2019-01-19T22:01:25.414Z,12.03
2019-01-19T22:03:52.676Z,11.90
2019-01-19T22:06:19.973Z,11.37
2019-01-19T22:08:47.225Z,12.10
2019-01-19T22:11:14.468Z,12.80
2019-01-19T22:13:41.744Z,12.90
2019-01-19T22:16:09.038Z,11.20
2019-01-19T22:18:36.323Z,13.37
2019-01-19T22:21:03.647Z,11.87
2019-01-19T22:23:30.930Z,12.27
2019-01-19T22:25:58.222Z,11.83
2019-01-19T22:28:25.494Z,11.70
2019-01-19T22:30:52.787Z,11.70
2019-01-19T22:33:21.694Z,11.50
2019-01-19T22:35:48.974Z,11.83
2019-01-19T22:38:16.248Z,12.93
2019-01-19T22:40:43.515Z,11.63
2019-01-19T22:43:12.347Z,12.37
2019-01-19T22:45:39.620Z,11.70
2019-01-19T22:48:06.888Z,12.87
2019-01-19T22:50:34.177Z,11.63
2019-01-19T22:53:01.440Z,11.47
2019-01-19T22:55:28.781Z,12.50
2019-01-19T22:57:56.039Z,12.60
2019-01-19T23:00:29.471Z,11.13
2019-01-19T23:02:56.727Z,11.47
2019-01-19T23:05:23.994Z,12.33
2019-01-19T23:07:51.251Z,11.70
2019-01-19T23:10:18.534Z,10.70
2019-01-19T23:12:45.830Z,12.07
2019-01-19T23:15:14.826Z,12.10
2019-01-19T23:17:43.962Z,11.67
2019-01-19T23:20:12.774Z,11.90
2019-01-19T23:22:40.128Z,11.57
2019-01-19T23:25:08.047Z,11.43
2019-01-19T23:27:35.326Z,11.70
2019-01-19T23:30:04.122Z,11.83
2019-01-19T23:32:31.388Z,11.67
2019-01-19T23:34:58.639Z,10.67
2019-01-19T23:37:25.948Z,10.30
2019-01-19T23:39:53.216Z,11.57
2019-01-19T23:42:20.499Z,12.27
2019-01-19T23:44:47.768Z,12.37
2019-01-19T23:47:15.018Z,12.03
2019-01-19T23:49:42.307Z,11.97
2019-01-19T23:52:09.557Z,12.10
2019-01-19T23:54:36.923Z,12.63
2019-01-19T23:57:04.385Z,11.63
2019-01-19T23:59:31.723Z,11.47
